TimeEDT,TemperatureF,Dew PointF,Humidity,Sea Level PressureIn,VisibilityMPH,Wind Direction,Wind SpeedMPH,Gust SpeedMPH,PrecipitationIn,Events,Conditions,WindDirDegrees,DateUTC
12:15 AM,53.6,53.6,100,30.08,5.0,Calm,Calm,-,N/A,,Drizzle,0,2012-10-10 04:15:00
12:35 AM,53.6,53.6,100,30.08,4.0,Calm,Calm,-,N/A,,Drizzle,0,2012-10-10 04:35:00
12:55 AM,53.6,53.6,100,30.07,4.0,Calm,Calm,-,N/A,,Drizzle,0,2012-10-10 04:55:00
1:15 AM,53.6,53.6,100,30.07,3.0,NNE,3.5,-,N/A,Rain,Rain,30,2012-10-10 05:15:00
1:35 AM,53.6,53.6,100,30.07,7.0,North,3.5,-,N/A,,Light Drizzle,360,2012-10-10 05:35:00
1:55 AM,53.6,53.6,100,30.06,5.0,NNE,3.5,-,N/A,,Light Drizzle,20,2012-10-10 05:55:00
2:15 AM,53.6,53.6,100,30.05,5.0,NNE,4.6,-,N/A,,Light Drizzle,30,2012-10-10 06:15:00
2:35 AM,53.6,53.6,100,30.05,3.0,NE,4.6,-,N/A,Rain,Rain,40,2012-10-10 06:35:00
2:55 AM,53.6,53.6,100,30.04,4.0,NNE,4.6,-,N/A,,Drizzle,30,2012-10-10 06:55:00
3:15 AM,53.6,53.6,100,30.03,3.0,Calm,Calm,-,N/A,,Drizzle,0,2012-10-10 07:15:00
3:35 AM,53.6,53.6,100,30.03,3.0,NNE,4.6,-,N/A,,Heavy Drizzle,20,2012-10-10 07:35:00
3:55 AM,53.6,53.6,100,30.02,3.0,NNE,4.6,-,N/A,,Drizzle,30,2012-10-10 07:55:00
4:15 AM,53.6,53.6,100,30.01,3.0,NNE,4.6,-,N/A,,Drizzle,30,2012-10-10 08:15:00
4:35 AM,51.8,51.8,100,30.02,4.0,NNE,5.8,-,N/A,,Drizzle,30,2012-10-10 08:35:00
4:55 AM,51.8,51.8,100,30.01,3.0,North,4.6,-,N/A,,Heavy Drizzle,10,2012-10-10 08:55:00
5:15 AM,51.8,51.8,100,30.01,3.0,NE,4.6,-,N/A,,Heavy Drizzle,40,2012-10-10 09:15:00
5:35 AM,51.8,51.8,100,30.00,4.0,NE,3.5,-,N/A,,Drizzle,40,2012-10-10 09:35:00
5:55 AM,51.8,51.8,100,29.99,4.0,NE,4.6,-,N/A,,Heavy Drizzle,40,2012-10-10 09:55:00
6:15 AM,51.8,51.8,100,29.98,5.0,NE,6.9,-,N/A,,Heavy Drizzle,40,2012-10-10 10:15:00
6:35 AM,51.8,51.8,100,29.98,7.0,NE,5.8,-,N/A,Rain,Light Rain,40,2012-10-10 10:35:00
7:45 AM,51.8,51.8,100,29.97,2.2,North,3.5,-,N/A,,Overcast,10,2012-10-10 11:45:00
9:45 AM,55.4,53.6,94,29.95,4.0,Calm,Calm,-,N/A,,Mostly Cloudy,0,2012-10-10 13:45:00
10:45 AM,57.2,53.6,88,29.93,4.0,Calm,Calm,-,N/A,,Overcast,0,2012-10-10 14:45:00
11:45 AM,59.0,55.4,88,29.91,5.0,Calm,Calm,-,N/A,,Overcast,0,2012-10-10 15:45:00
12:45 PM,62.6,55.4,77,29.89,10.0,West,9.2,-,N/A,,Mostly Cloudy,260,2012-10-10 16:45:00
1:45 PM,66.2,53.6,64,29.84,10.0,West,10.4,16.1,N/A,,Mostly Cloudy,260,2012-10-10 17:45:00
2:45 PM,66.2,50.0,56,29.83,10.0,West,15.0,23.0,N/A,,Scattered Clouds,270,2012-10-10 18:45:00
3:45 PM,64.4,48.2,56,29.82,10.0,West,12.7,18.4,N/A,,Scattered Clouds,270,2012-10-10 19:45:00
4:45 PM,64.4,46.4,52,29.82,10.0,West,16.1,23.0,N/A,,Mostly Cloudy,280,2012-10-10 20:45:00
5:45 PM,62.6,46.4,55,29.82,10.0,West,10.4,-,N/A,,Clear,260,2012-10-10 21:45:00
6:45 PM,59.0,46.4,63,29.84,10.0,West,5.8,-,N/A,,Clear,260,2012-10-10 22:45:00
7:45 PM,59.0,46.4,63,29.86,10.0,West,5.8,-,N/A,,Overcast,260,2012-10-10 23:45:00
8:45 PM,59.0,46.4,63,29.89,10.0,West,11.5,-,N/A,,Overcast,280,2012-10-11 00:45:00
9:45 PM,57.2,41.0,55,29.92,10.0,West,10.4,-,N/A,,Mostly Cloudy,280,2012-10-11 01:45:00
10:55 PM,53.6,42.8,67,29.95,10.0,West,5.8,-,N/A,,Clear,280,2012-10-11 02:55:00
11:15 PM,53.6,41.0,62,29.97,10.0,WNW,6.9,18.4,N/A,,Clear,290,2012-10-11 03:15:00
11:35 PM,53.6,39.2,58,29.97,10.0,WNW,12.7,19.6,N/A,,Scattered Clouds,300,2012-10-11 03:35:00
11:55 PM,51.8,39.2,62,29.98,10.0,WNW,6.9,-,N/A,,Scattered Clouds,300,2012-10-11 03:55:00